Time;durP1;ratioP1;P1;durP2;ratioP2;P2;SDS_P1;SDS_P2;PMS_P1;PMS_P2;Temp;Humidity;BMP_temperature;BMP_pressure;BME280_temperature;BME280_humidity;BME280_pressure;Samples;Min_cycle;Max_cycle;Signal;HPM_P1;HPM_P2
2023/01/22 00:01:01;;;;;;;;;;;;;;;-1.84;92.73;99073.30;105299;1257;97916;-63
2023/01/22 00:03:28;;;;;;;;;;;;;;;-1.82;92.53;99073.85;105274;1256;97893;-63
2023/01/22 00:05:55;;;;;;;;;;;;;;;-1.83;92.28;99073.17;105262;1258;97894;-63
2023/01/22 00:08:22;;;;;;;;;;;;;;;-1.84;92.39;99075.33;105323;1270;97928;-63
2023/01/22 00:10:50;;;;;;;;;;;;;;;-1.85;92.18;99076.13;105267;1257;98643;-63
2023/01/22 00:13:18;;;;;;;;;;;;;;;-1.83;92.37;99080.48;105304;1256;97995;-63
2023/01/22 00:15:45;;;;;;;;;;;;;;;-1.83;92.57;99078.17;105326;1256;97888;-63
2023/01/22 00:18:13;;;;;;;;;;;;;;;-1.84;92.78;99082.23;105341;1257;97896;-63
2023/01/22 00:20:39;;;;;;;;;;;;;;;-1.89;92.53;99081.86;105359;1267;97915;-63
2023/01/22 00:23:07;;;;;;;;;;;;;;;-1.91;92.92;99078.86;105116;1254;97918;-68
2023/01/22 00:25:34;;;;;;;;;;;;;;;-1.92;92.83;99083.02;105171;1252;98022;-64
2023/01/22 00:28:01;;;;;;;;;;;;;;;-1.94;93.01;99089.39;105280;1257;97917;-66
2023/01/22 00:30:28;;;;;;;;;;;;;;;-1.93;93.27;99093.02;105323;1257;97946;-62
2023/01/22 00:32:55;;;;;;;;;;;;;;;-1.92;93.25;99096.02;105371;1257;97943;-63
2023/01/22 00:35:23;;;;;;;;;;;;;;;-1.95;93.09;99097.95;105387;1256;98008;-63
2023/01/22 00:37:49;;;;;;;;;;;;;;;-1.99;93.16;99102.54;105343;1268;97908;-63
2023/01/22 00:40:17;;;;;;;;;;;;;;;-2.04;93.24;99100.59;105250;1254;98002;-63
2023/01/22 00:42:44;;;;;;;;;;;;;;;-2.06;93.35;99095.40;105326;1254;97889;-63
2023/01/22 00:45:14;;;;;;;;;;;;;;;-2.07;93.53;99098.67;105271;1257;98489;-64
2023/01/22 00:47:41;;;;;;;;;;;;;;;-2.08;93.40;99098.41;105334;1257;97889;-63
2023/01/22 00:50:09;;;;;;;;;;;;;;;-2.09;93.77;99097.98;105322;1254;99092;-63
2023/01/22 00:52:38;;;;;;;;;;;;;;;-2.08;93.51;99101.61;105271;1256;99215;-63
2023/01/22 00:55:06;;;;;;;;;;;;;;;-2.05;93.73;99104.52;105295;1257;98829;-63
2023/01/22 00:57:33;;;;;;;;;;;;;;;-2.00;93.60;99107.75;105304;1256;109797;-64
2023/01/22 01:00:00;;;;;;;;;;;;;;;-1.99;93.55;99105.09;105268;1256;97901;-64
2023/01/22 01:02:27;;;;;;;;;;;;;;;-1.98;93.40;99109.96;105304;1252;97902;-64
2023/01/22 01:04:55;;;;;;;;;;;;;;;-1.94;93.49;99112.78;105267;1256;97910;-64
2023/01/22 01:07:22;;;;;;;;;;;;;;;-1.88;93.48;99112.36;105230;1264;98010;-64
2023/01/22 01:09:49;;;;;;;;;;;;;;;-1.85;93.44;99108.40;105261;1258;97893;-64
2023/01/22 01:12:17;;;;;;;;;;;;;;;-1.83;93.45;99108.05;105241;1256;99130;-64
2023/01/22 01:14:44;;;;;;;;;;;;;;;-1.78;93.53;99114.42;105323;1256;98823;-64
2023/01/22 01:17:10;;;;;;;;;;;;;;;-1.75;93.47;99112.83;105273;1267;99214;-64
2023/01/22 01:19:37;;;;;;;;;;;;;;;-1.72;93.45;99116.71;105266;1257;97975;-64
2023/01/22 01:22:06;;;;;;;;;;;;;;;-1.64;93.62;99109.33;105289;1266;98008;-64
2023/01/22 01:24:35;;;;;;;;;;;;;;;-1.61;93.37;99105.05;105272;1256;97933;-65
2023/01/22 01:27:02;;;;;;;;;;;;;;;-1.59;93.26;99101.46;105315;1254;97950;-65
2023/01/22 01:29:29;;;;;;;;;;;;;;;-1.56;93.32;99107.13;105132;1268;97883;-65
2023/01/22 01:31:56;;;;;;;;;;;;;;;-1.55;92.95;99111.42;105293;1254;98084;-65
2023/01/22 01:34:23;;;;;;;;;;;;;;;-1.55;93.00;99109.07;105291;1256;97919;-65
2023/01/22 01:36:51;;;;;;;;;;;;;;;-1.53;93.12;99107.94;105313;1257;99191;-65
2023/01/22 01:39:23;;;;;;;;;;;;;;;-1.49;93.11;99106.70;105319;1256;98488;-65
2023/01/22 01:41:56;;;;;;;;;;;;;;;-1.47;92.99;99110.65;105279;1256;112279;-65
2023/01/22 01:44:32;;;;;;;;;;;;;;;-1.46;93.12;99112.05;104967;1254;99499;-65
2023/01/22 01:47:06;;;;;;;;;;;;;;;-1.44;93.12;99110.69;105266;1267;106785;-65
2023/01/22 01:49:36;;;;;;;;;;;;;;;-1.41;93.08;99113.07;105111;1254;99114;-70
2023/01/22 01:52:08;;;;;;;;;;;;;;;-1.38;93.30;99113.36;105296;1257;99108;-65
2023/01/22 01:54:36;;;;;;;;;;;;;;;-1.28;93.50;99116.39;105320;1257;111683;-65
2023/01/22 01:57:06;;;;;;;;;;;;;;;-1.20;93.39;99117.14;105314;1260;99112;-65
2023/01/22 01:59:34;;;;;;;;;;;;;;;-1.18;92.74;99122.50;105270;1271;107903;-65
2023/01/22 02:02:02;;;;;;;;;;;;;;;-1.21;92.58;99121.41;105340;1257;98003;-65
2023/01/22 02:04:29;;;;;;;;;;;;;;;-1.25;92.47;99123.23;105336;1263;97921;-65
2023/01/22 02:06:56;;;;;;;;;;;;;;;-1.31;92.32;99125.91;105324;1264;97975;-65
2023/01/22 02:09:23;;;;;;;;;;;;;;;-1.36;92.74;99131.30;105343;1257;97903;-65
2023/01/22 02:11:52;;;;;;;;;;;;;;;-1.38;92.68;99141.67;105298;1254;98103;-65
2023/01/22 02:14:22;;;;;;;;;;;;;;;-1.42;92.95;99144.60;105373;1258;97915;-65
2023/01/22 02:16:58;;;;;;;;;;;;;;;-1.47;93.02;99146.55;105302;1256;97960;-65
2023/01/22 02:19:25;;;;;;;;;;;;;;;-1.50;93.26;99147.36;105297;1256;112381;-63
2023/01/22 02:21:53;;;;;;;;;;;;;;;-1.52;93.54;99147.34;105330;1256;99220;-63
2023/01/22 02:24:19;;;;;;;;;;;;;;;-1.50;93.70;99146.98;105298;1257;97937;-63
2023/01/22 02:26:46;;;;;;;;;;;;;;;-1.47;93.66;99145.69;105255;1256;97905;-63
2023/01/22 02:29:13;;;;;;;;;;;;;;;-1.43;93.58;99149.74;105299;1264;98633;-63
2023/01/22 02:31:41;;;;;;;;;;;;;;;-1.41;93.35;99151.16;105308;1258;98014;-64
2023/01/22 02:34:09;;;;;;;;;;;;;;;-1.40;93.53;99151.94;105171;1268;97905;-64
2023/01/22 02:36:36;;;;;;;;;;;;;;;-1.38;93.36;99155.10;105191;1267;97942;-64
2023/01/22 02:39:04;;;;;;;;;;;;;;;-1.35;93.65;99155.04;105195;1253;97896;-64
2023/01/22 02:41:32;;;;;;;;;;;;;;;-1.30;93.41;99155.23;105247;1257;97916;-64
2023/01/22 02:43:59;;;;;;;;;;;;;;;-1.27;93.34;99158.99;105277;1275;97905;-64
2023/01/22 02:46:26;;;;;;;;;;;;;;;-1.23;93.33;99155.10;105280;1256;97975;-64
2023/01/22 02:48:53;;;;;;;;;;;;;;;-1.23;93.18;99155.16;105335;1269;98273;-64
2023/01/22 02:51:21;;;;;;;;;;;;;;;-1.28;93.35;99157.35;105284;1257;97905;-64
2023/01/22 02:53:48;;;;;;;;;;;;;;;-1.31;93.48;99149.48;105338;1257;97976;-64
2023/01/22 02:56:15;;;;;;;;;;;;;;;-1.34;93.50;99152.95;105305;1256;97962;-64
2023/01/22 02:58:41;;;;;;;;;;;;;;;-1.35;93.77;99150.15;105183;1257;98601;-64
2023/01/22 03:01:19;;;;;;;;;;;;;;;-1.33;93.85;99154.45;105328;1257;98166;-64
2023/01/22 03:03:47;;;;;;;;;;;;;;;-1.31;93.73;99143.79;105236;1257;99080;-64
2023/01/22 03:06:14;;;;;;;;;;;;;;;-1.30;93.66;99141.24;105274;1257;114129;-64
2023/01/22 03:08:42;;;;;;;;;;;;;;;-1.29;93.76;99143.86;105145;1257;99183;-64
2023/01/22 03:11:11;;;;;;;;;;;;;;;-1.29;93.82;99147.64;105257;1256;108467;-67
2023/01/22 03:21:55;;;;;;;;;;;;;;;-1.30;93.81;99159.84;105286;1257;99066;-64
2023/01/22 03:24:21;;;;;;;;;;;;;;;-1.29;93.79;99161.13;105352;1256;98010;-64
2023/01/22 03:26:48;;;;;;;;;;;;;;;-1.29;93.66;99156.94;105284;1256;97882;-64
2023/01/22 03:29:16;;;;;;;;;;;;;;;-1.26;93.88;99155.35;105198;1254;97846;-64
2023/01/22 03:31:46;;;;;;;;;;;;;;;-1.23;94.01;99153.66;105255;1257;99110;-64
2023/01/22 03:34:15;;;;;;;;;;;;;;;-1.20;93.98;99149.29;105271;1269;97899;-64
2023/01/22 03:36:42;;;;;;;;;;;;;;;-1.20;93.95;99153.64;105301;1257;108684;-64
2023/01/22 03:39:09;;;;;;;;;;;;;;;-1.23;93.74;99153.08;105321;1256;98015;-64
2023/01/22 03:41:36;;;;;;;;;;;;;;;-1.26;93.93;99155.89;105340;1256;98035;-64
2023/01/22 03:44:03;;;;;;;;;;;;;;;-1.29;94.25;99154.13;105274;1254;98492;-64
2023/01/22 03:46:30;;;;;;;;;;;;;;;-1.28;94.36;99152.06;105330;1270;97886;-64
2023/01/22 03:48:57;;;;;;;;;;;;;;;-1.27;94.17;99151.84;105322;1257;97914;-64
2023/01/22 03:51:24;;;;;;;;;;;;;;;-1.23;94.27;99151.02;105265;1254;97880;-64
2023/01/22 03:53:51;;;;;;;;;;;;;;;-1.22;94.10;99151.92;105354;1257;97973;-63
2023/01/22 03:56:19;;;;;;;;;;;;;;;-1.22;94.09;99154.02;105261;1257;99187;-64
2023/01/22 03:58:47;;;;;;;;;;;;;;;-1.23;94.19;99152.58;105273;1270;107913;-64
2023/01/22 04:01:18;;;;;;;;;;;;;;;-1.26;94.27;99145.23;105363;1254;97905;-63
2023/01/22 04:03:45;;;;;;;;;;;;;;;-1.28;94.17;99150.82;105233;1256;97905;-64
2023/01/22 04:06:12;;;;;;;;;;;;;;;-1.28;94.39;99159.09;105209;1257;99173;-64
2023/01/22 04:08:40;;;;;;;;;;;;;;;-1.26;94.32;99159.33;105182;1267;97898;-64
2023/01/22 04:11:07;;;;;;;;;;;;;;;-1.24;94.19;99158.80;105241;1257;97905;-64
2023/01/22 04:13:35;;;;;;;;;;;;;;;-1.20;94.24;99156.33;105355;1256;97909;-63
2023/01/22 04:16:03;;;;;;;;;;;;;;;-1.16;94.11;99150.64;105302;1254;99083;-64
2023/01/22 04:18:30;;;;;;;;;;;;;;;-1.11;94.07;99151.02;105157;1257;111729;-64
2023/01/22 04:20:57;;;;;;;;;;;;;;;-1.08;93.81;99152.34;105324;1256;99196;-64
2023/01/22 04:23:24;;;;;;;;;;;;;;;-1.07;93.62;99152.50;105293;1256;97941;-63
2023/01/22 04:25:51;;;;;;;;;;;;;;;-1.08;93.45;99153.06;105355;1257;97899;-63
2023/01/22 04:28:19;;;;;;;;;;;;;;;-1.12;93.42;99147.80;105334;1259;99216;-64
2023/01/22 04:30:46;;;;;;;;;;;;;;;-1.18;93.35;99145.91;105136;1254;97949;-63
2023/01/22 04:33:13;;;;;;;;;;;;;;;-1.20;93.56;99148.46;105280;1268;97877;-65
2023/01/22 04:35:41;;;;;;;;;;;;;;;-1.21;93.45;99147.85;105230;1256;98034;-65
2023/01/22 04:38:09;;;;;;;;;;;;;;;-1.21;93.40;99145.34;105269;1256;99211;-65
2023/01/22 04:40:36;;;;;;;;;;;;;;;-1.20;93.34;99147.96;105359;1257;97986;-65
2023/01/22 04:43:04;;;;;;;;;;;;;;;-1.21;93.34;99146.52;105069;1257;287356;-65
2023/01/22 04:45:31;;;;;;;;;;;;;;;-1.21;93.26;99154.48;105339;1257;97930;-63
2023/01/22 04:47:59;;;;;;;;;;;;;;;-1.24;93.38;99161.16;105329;1256;97983;-62
2023/01/22 04:50:27;;;;;;;;;;;;;;;-1.24;93.51;99160.35;105342;1270;98013;-62
2023/01/22 04:52:55;;;;;;;;;;;;;;;-1.23;93.43;99160.91;105317;1257;97816;-63
2023/01/22 04:55:23;;;;;;;;;;;;;;;-1.22;93.41;99159.58;105275;1256;112150;-62
2023/01/22 04:57:52;;;;;;;;;;;;;;;-1.21;93.21;99158.73;105331;1257;98768;-64
2023/01/22 05:00:19;;;;;;;;;;;;;;;-1.20;93.22;99156.45;105346;1256;108522;-64
2023/01/22 05:02:46;;;;;;;;;;;;;;;-1.19;92.95;99150.27;105297;1256;97982;-64
2023/01/22 05:05:13;;;;;;;;;;;;;;;-1.20;93.04;99150.85;105246;1256;97876;-63
2023/01/22 05:07:40;;;;;;;;;;;;;;;-1.21;93.24;99161.45;105373;1257;97982;-64
2023/01/22 05:10:07;;;;;;;;;;;;;;;-1.23;93.04;99162.16;105275;1254;97924;-63
2023/01/22 05:12:34;;;;;;;;;;;;;;;-1.25;93.31;99158.61;105291;1257;97992;-64
2023/01/22 05:15:01;;;;;;;;;;;;;;;-1.26;93.33;99161.17;105237;1256;97897;-63
2023/01/22 05:17:37;;;;;;;;;;;;;;;-1.24;93.24;99165.95;105265;1257;97982;-63
2023/01/22 05:20:05;;;;;;;;;;;;;;;-1.22;93.16;99173.02;105321;1257;97889;-64
2023/01/22 05:22:32;;;;;;;;;;;;;;;-1.20;93.16;99173.08;105308;1254;98037;-64
2023/01/22 05:24:58;;;;;;;;;;;;;;;-1.18;93.21;99170.00;105266;1256;99193;-64
2023/01/22 05:27:25;;;;;;;;;;;;;;;-1.16;93.04;99167.86;105330;1257;97944;-64
2023/01/22 05:29:52;;;;;;;;;;;;;;;-1.15;93.11;99166.11;105267;1256;97835;-64
2023/01/22 05:32:19;;;;;;;;;;;;;;;-1.15;93.15;99170.09;105346;1256;98583;-64
2023/01/22 05:34:46;;;;;;;;;;;;;;;-1.18;93.10;99179.89;105336;1254;108569;-64
2023/01/22 05:37:13;;;;;;;;;;;;;;;-1.21;93.28;99184.59;105277;1256;97954;-64
2023/01/22 05:39:39;;;;;;;;;;;;;;;-1.25;93.38;99187.16;105288;1257;99673;-64
2023/01/22 05:42:06;;;;;;;;;;;;;;;-1.27;93.60;99192.51;105238;1254;97895;-64
2023/01/22 05:44:33;;;;;;;;;;;;;;;-1.27;93.32;99190.73;105249;1256;97899;-64
2023/01/22 05:47:00;;;;;;;;;;;;;;;-1.26;93.42;99187.79;105329;1254;99170;-65
2023/01/22 05:49:27;;;;;;;;;;;;;;;-1.24;93.38;99193.02;105337;1258;98258;-64
2023/01/22 05:51:54;;;;;;;;;;;;;;;-1.21;93.21;99195.23;105253;1256;97912;-64
2023/01/22 05:54:20;;;;;;;;;;;;;;;-1.21;93.11;99198.41;105155;1258;98150;-64
2023/01/22 05:56:47;;;;;;;;;;;;;;;-1.22;92.93;99200.58;105257;1256;97992;-65
2023/01/22 05:59:14;;;;;;;;;;;;;;;-1.23;93.09;99193.34;105198;1256;98507;-65
2023/01/22 06:01:41;;;;;;;;;;;;;;;-1.29;93.21;99191.52;105373;1257;99191;-65
2023/01/22 06:04:08;;;;;;;;;;;;;;;-1.28;92.99;99195.79;105264;1257;99191;-63
2023/01/22 06:06:35;;;;;;;;;;;;;;;-1.26;93.14;99194.82;105254;1256;97927;-63
2023/01/22 06:09:02;;;;;;;;;;;;;;;-1.26;92.98;99198.29;105256;1254;99105;-63
2023/01/22 06:11:29;;;;;;;;;;;;;;;-1.25;92.77;99203.57;105360;1256;97966;-63
2023/01/22 06:13:56;;;;;;;;;;;;;;;-1.24;92.80;99200.68;105233;1256;97913;-63
2023/01/22 06:16:22;;;;;;;;;;;;;;;-1.25;92.78;99200.82;105321;1257;97972;-63
2023/01/22 06:18:49;;;;;;;;;;;;;;;-1.30;92.70;99194.23;105327;1257;98757;-65
2023/01/22 06:21:16;;;;;;;;;;;;;;;-1.31;93.00;99199.66;105303;1256;97989;-65
2023/01/22 06:23:43;;;;;;;;;;;;;;;-1.32;92.86;99203.35;105261;1268;98552;-64
2023/01/22 06:26:11;;;;;;;;;;;;;;;-1.30;92.94;99206.90;105350;1257;98624;-63
2023/01/22 06:28:38;;;;;;;;;;;;;;;-1.29;93.00;99211.10;105116;1264;98039;-63
2023/01/22 06:31:06;;;;;;;;;;;;;;;-1.27;92.88;99214.81;105215;1267;98334;-64
2023/01/22 06:33:34;;;;;;;;;;;;;;;-1.25;92.77;99215.61;105230;1256;99211;-64
2023/01/22 06:36:02;;;;;;;;;;;;;;;-1.27;92.80;99218.70;105199;1256;99217;-64
2023/01/22 06:38:29;;;;;;;;;;;;;;;-1.28;92.81;99216.31;105282;1254;99410;-64
2023/01/22 06:40:57;;;;;;;;;;;;;;;-1.30;93.08;99215.61;105261;1257;97969;-64
2023/01/22 06:43:25;;;;;;;;;;;;;;;-1.32;92.97;99219.54;105328;1254;99086;-64
2023/01/22 06:45:53;;;;;;;;;;;;;;;-1.31;93.30;99224.31;105415;1256;97877;-64
2023/01/22 06:48:24;;;;;;;;;;;;;;;-1.30;93.11;99220.58;105193;1257;111401;-64
2023/01/22 06:51:01;;;;;;;;;;;;;;;-1.29;93.28;99225.25;105187;1257;99204;-64
2023/01/22 06:53:34;;;;;;;;;;;;;;;-1.29;93.12;99226.90;105213;1256;108796;-64
2023/01/22 06:56:01;;;;;;;;;;;;;;;-1.26;93.17;99226.17;105055;1256;98132;-64
2023/01/22 06:58:28;;;;;;;;;;;;;;;-1.23;93.11;99221.59;105306;1254;97902;-64
2023/01/22 07:00:58;;;;;;;;;;;;;;;-1.22;92.98;99226.48;105123;1257;97985;-64
2023/01/22 07:03:26;;;;;;;;;;;;;;;-1.22;93.08;99222.30;105325;1256;99230;-65
2023/01/22 07:05:57;;;;;;;;;;;;;;;-1.24;93.20;99225.00;105174;1267;97988;-64
2023/01/22 07:08:24;;;;;;;;;;;;;;;-1.22;93.20;99234.73;104964;1256;99193;-64
2023/01/22 07:10:51;;;;;;;;;;;;;;;-1.22;93.06;99234.87;104977;1254;99191;-64
2023/01/22 07:13:19;;;;;;;;;;;;;;;-1.21;93.27;99235.48;105237;1256;97916;-64
2023/01/22 07:15:46;;;;;;;;;;;;;;;-1.18;93.26;99242.36;105079;1255;97918;-64
2023/01/22 07:18:15;;;;;;;;;;;;;;;-1.16;93.20;99250.80;105178;1257;109459;-64
2023/01/22 07:20:42;;;;;;;;;;;;;;;-1.16;93.16;99249.05;105238;1256;98680;-65
2023/01/22 07:23:09;;;;;;;;;;;;;;;-1.15;93.10;99249.92;105301;1256;97903;-67
2023/01/22 07:25:36;;;;;;;;;;;;;;;-1.15;93.19;99246.02;105283;1267;97927;-65
2023/01/22 07:28:04;;;;;;;;;;;;;;;-1.14;93.42;99250.07;105373;1254;99109;-65
2023/01/22 07:30:31;;;;;;;;;;;;;;;-1.10;93.45;99259.27;105295;1257;97896;-65
2023/01/22 07:32:59;;;;;;;;;;;;;;;-1.07;93.25;99271.48;105338;1257;97909;-65
2023/01/22 07:35:27;;;;;;;;;;;;;;;-1.04;93.27;99276.23;105224;1256;98018;-65
2023/01/22 07:37:56;;;;;;;;;;;;;;;-1.03;93.10;99280.25;105250;1254;97907;-65
2023/01/22 07:40:24;;;;;;;;;;;;;;;-0.98;93.18;99290.40;105250;1258;99390;-65
2023/01/22 07:42:51;;;;;;;;;;;;;;;-0.95;93.11;99283.23;105333;1256;107633;-65
2023/01/22 07:45:19;;;;;;;;;;;;;;;-0.93;92.89;99277.10;105338;1257;97953;-63
2023/01/22 07:47:53;;;;;;;;;;;;;;;-0.94;92.97;99276.04;105337;1257;99201;-63
2023/01/22 07:50:25;;;;;;;;;;;;;;;-0.95;92.87;99284.85;105162;1257;111837;-63
2023/01/22 07:52:52;;;;;;;;;;;;;;;-0.91;92.99;99289.66;105180;1257;99188;-64
2023/01/22 07:55:20;;;;;;;;;;;;;;;-0.88;92.83;99295.02;105078;1264;108676;-64
2023/01/22 07:57:47;;;;;;;;;;;;;;;-0.85;92.78;99292.04;105289;1254;98080;-64
2023/01/22 08:00:14;;;;;;;;;;;;;;;-0.80;92.70;99294.56;105184;1256;98604;-64
2023/01/22 08:02:42;;;;;;;;;;;;;;;-0.76;92.63;99296.13;105216;1270;110956;-64
2023/01/22 08:05:12;;;;;;;;;;;;;;;-0.73;92.48;99293.74;105331;1256;99197;-64
2023/01/22 08:07:39;;;;;;;;;;;;;;;-0.71;92.45;99298.29;105327;1275;108545;-64
2023/01/22 08:10:06;;;;;;;;;;;;;;;-0.68;92.66;99294.52;105269;1254;97976;-64
2023/01/22 08:12:35;;;;;;;;;;;;;;;-0.66;92.58;99293.05;105179;1256;97905;-64
2023/01/22 08:15:02;;;;;;;;;;;;;;;-0.66;92.59;99288.73;105353;1257;111757;-64
2023/01/22 08:17:29;;;;;;;;;;;;;;;-0.66;92.74;99289.27;105296;1256;99122;-64
2023/01/22 08:19:56;;;;;;;;;;;;;;;-0.64;92.60;99288.64;105234;1267;99338;-64
2023/01/22 08:22:23;;;;;;;;;;;;;;;-0.64;92.71;99285.23;105104;1264;97901;-64
2023/01/22 08:24:50;;;;;;;;;;;;;;;-0.66;92.57;99279.30;105273;1266;97978;-64
2023/01/22 08:27:17;;;;;;;;;;;;;;;-0.67;92.49;99282.16;105367;1254;98586;-64
2023/01/22 08:29:44;;;;;;;;;;;;;;;-0.65;92.71;99283.10;105306;1270;99076;-65
2023/01/22 08:32:11;;;;;;;;;;;;;;;-0.64;92.91;99279.90;105331;1257;97888;-64
2023/01/22 08:34:38;;;;;;;;;;;;;;;-0.63;92.64;99280.09;105227;1257;97980;-64
2023/01/22 08:37:06;;;;;;;;;;;;;;;-0.63;92.56;99284.08;105216;1257;97890;-64
2023/01/22 08:39:33;;;;;;;;;;;;;;;-0.65;92.72;99288.86;105154;1266;99040;-64
2023/01/22 08:42:00;;;;;;;;;;;;;;;-0.66;92.68;99294.00;105261;1257;97902;-69
2023/01/22 08:44:27;;;;;;;;;;;;;;;-0.63;92.75;99298.40;105142;1254;97898;-68
2023/01/22 08:46:57;;;;;;;;;;;;;;;-0.60;92.84;99300.00;105374;1267;98521;-65
2023/01/22 08:49:29;;;;;;;;;;;;;;;-0.55;92.75;99296.91;105259;1257;111949;-64
2023/01/22 08:51:57;;;;;;;;;;;;;;;-0.53;92.77;99301.94;105275;1254;99206;-70
2023/01/22 08:54:25;;;;;;;;;;;;;;;-0.55;92.39;99294.23;105285;1256;97905;-62
2023/01/22 08:56:52;;;;;;;;;;;;;;;-0.55;92.52;99300.30;105287;1257;97883;-62
2023/01/22 08:59:19;;;;;;;;;;;;;;;-0.52;92.61;99297.31;105274;1257;98182;-62
2023/01/22 09:01:46;;;;;;;;;;;;;;;-0.47;92.70;99296.54;105256;1257;97918;-62
2023/01/22 09:04:13;;;;;;;;;;;;;;;-0.44;92.49;99298.08;105218;1266;98785;-63
2023/01/22 09:06:40;;;;;;;;;;;;;;;-0.43;92.45;99301.16;105295;1257;98862;-63
2023/01/22 09:09:07;;;;;;;;;;;;;;;-0.44;92.36;99303.95;105283;1256;97977;-63
2023/01/22 09:11:34;;;;;;;;;;;;;;;-0.43;92.60;99306.52;105324;1254;97899;-63
2023/01/22 09:14:02;;;;;;;;;;;;;;;-0.42;92.63;99313.50;105586;1257;97911;-63
2023/01/22 09:16:31;;;;;;;;;;;;;;;-0.44;92.57;99319.90;105246;1257;108621;-63
2023/01/22 09:18:58;;;;;;;;;;;;;;;-0.44;92.32;99318.95;105302;1256;98008;-63
2023/01/22 09:21:25;;;;;;;;;;;;;;;-0.42;92.56;99313.75;105280;1256;99191;-63
2023/01/22 09:23:52;;;;;;;;;;;;;;;-0.38;92.47;99315.48;105295;1257;97987;-63
2023/01/22 09:26:19;;;;;;;;;;;;;;;-0.35;92.51;99315.79;105282;1262;97964;-63
2023/01/22 09:28:46;;;;;;;;;;;;;;;-0.31;92.50;99307.08;105336;1257;99080;-63
2023/01/22 09:31:14;;;;;;;;;;;;;;;-0.25;92.65;99312.61;105340;1256;97903;-63
2023/01/22 09:33:41;;;;;;;;;;;;;;;-0.23;92.17;99310.30;105408;1256;97905;-61
2023/01/22 09:36:12;;;;;;;;;;;;;;;-0.28;91.82;99310.10;105291;1264;97921;-61
2023/01/22 09:38:40;;;;;;;;;;;;;;;-0.27;92.38;99312.50;105337;1257;98228;-61
2023/01/22 09:41:18;;;;;;;;;;;;;;;-0.28;92.42;99310.56;105319;1258;108217;-61
2023/01/22 09:43:48;;;;;;;;;;;;;;;-0.30;92.38;99311.95;105274;1257;98005;-60
2023/01/22 09:46:22;;;;;;;;;;;;;;;-0.31;92.20;99310.73;105293;1259;99124;-61
2023/01/22 09:48:55;;;;;;;;;;;;;;;-0.31;92.39;99311.14;105232;1257;111479;-60
2023/01/22 09:51:22;;;;;;;;;;;;;;;-0.30;92.29;99310.42;105292;1266;98275;-61
2023/01/22 09:53:53;;;;;;;;;;;;;;;-0.27;92.38;99316.44;105072;1257;108476;-63
2023/01/22 09:56:21;;;;;;;;;;;;;;;-0.26;92.41;99317.91;105125;1256;97893;-62
2023/01/22 09:58:50;;;;;;;;;;;;;;;-0.24;92.40;99321.25;105347;1269;97916;-61
2023/01/22 10:01:18;;;;;;;;;;;;;;;-0.20;92.59;99322.77;105205;1266;112003;-61
2023/01/22 10:03:48;;;;;;;;;;;;;;;-0.15;92.37;99322.91;105202;1257;98173;-62
2023/01/22 10:06:17;;;;;;;;;;;;;;;-0.11;92.37;99325.66;105196;1267;108294;-61
2023/01/22 10:08:53;;;;;;;;;;;;;;;-0.10;92.36;99329.09;105314;1266;98079;-63
2023/01/22 10:11:20;;;;;;;;;;;;;;;-0.10;92.40;99336.45;105293;1257;99061;-60
2023/01/22 10:13:48;;;;;;;;;;;;;;;-0.09;92.40;99344.31;105214;1269;99133;-61
2023/01/22 10:16:15;;;;;;;;;;;;;;;-0.08;92.22;99341.41;105282;1257;99331;-62
2023/01/22 10:19:18;;;;;;;;;;;;;;;-0.03;92.49;99336.07;105282;1266;98036;-63
2023/01/22 10:21:51;;;;;;;;;;;;;;;0.03;92.18;99338.29;104517;1266;98024;-63
2023/01/22 10:24:18;;;;;;;;;;;;;;;0.06;92.14;99339.40;104476;1266;99104;-60
2023/01/22 10:26:45;;;;;;;;;;;;;;;0.10;92.04;99336.20;104509;1265;98066;-60
2023/01/22 10:29:20;;;;;;;;;;;;;;;0.13;92.05;99333.22;104568;1263;97993;-61
2023/01/22 10:31:50;;;;;;;;;;;;;;;0.14;91.86;99332.02;104642;1277;107190;-62
2023/01/22 10:34:21;;;;;;;;;;;;;;;0.09;91.73;99327.25;104620;1265;101537;-62
2023/01/22 10:36:49;;;;;;;;;;;;;;;0.05;92.03;99327.77;104652;1260;99000;-62
2023/01/22 10:39:16;;;;;;;;;;;;;;;0.03;92.29;99324.35;104646;1273;111493;-63
2023/01/22 10:41:45;;;;;;;;;;;;;;;-0.03;92.33;99325.84;104614;1265;99422;-62
2023/01/22 10:44:12;;;;;;;;;;;;;;;-0.03;92.42;99324.33;104633;1265;108509;-63
2023/01/22 10:46:39;;;;;;;;;;;;;;;0.01;92.62;99329.43;104551;1265;97995;-62
2023/01/22 10:49:13;;;;;;;;;;;;;;;0.03;92.60;99330.41;104581;1266;98081;-62
2023/01/22 10:51:42;;;;;;;;;;;;;;;0.05;92.46;99329.52;104618;1273;112048;-62
2023/01/22 10:54:18;;;;;;;;;;;;;;;0.06;92.43;99325.05;104639;1273;98879;-63
2023/01/22 10:56:46;;;;;;;;;;;;;;;0.05;92.49;99318.94;104962;1276;108388;-62
2023/01/22 10:59:19;;;;;;;;;;;;;;;0.04;92.57;99320.41;105113;1268;97883;-62
2023/01/22 11:01:47;;;;;;;;;;;;;;;0.02;92.79;99320.25;105269;1259;97915;-62
2023/01/22 11:04:20;;;;;;;;;;;;;;;0.07;92.84;99328.79;105240;1267;111857;-62
2023/01/22 11:06:53;;;;;;;;;;;;;;;0.08;92.80;99324.37;105220;1258;99101;-63
2023/01/22 11:09:25;;;;;;;;;;;;;;;0.11;92.59;99322.59;105233;1260;108630;-63
2023/01/22 11:11:59;;;;;;;;;;;;;;;0.09;92.58;99320.17;105121;1264;97936;-62
2023/01/22 11:14:28;;;;;;;;;;;;;;;0.10;92.47;99320.25;105127;1257;98504;-62
2023/01/22 11:16:57;;;;;;;;;;;;;;;0.13;92.59;99316.55;105208;1259;111154;-62
2023/01/22 11:19:27;;;;;;;;;;;;;;;0.18;92.71;99316.53;105291;1257;98755;-63
2023/01/22 11:22:05;;;;;;;;;;;;;;;0.21;92.49;99315.04;105212;1254;108557;-63
2023/01/22 11:24:32;;;;;;;;;;;;;;;0.24;92.42;99318.52;105039;1267;98037;-62
2023/01/22 11:27:05;;;;;;;;;;;;;;;0.25;92.57;99327.55;105180;1267;97927;-67
2023/01/22 11:29:35;;;;;;;;;;;;;;;0.22;92.31;99324.02;105132;1257;111751;-67
2023/01/22 11:32:20;;;;;;;;;;;;;;;0.18;92.28;99327.52;105345;1254;100373;-64
2023/01/22 11:34:53;;;;;;;;;;;;;;;0.17;92.58;99325.52;105215;1266;106020;-62
2023/01/22 11:37:33;;;;;;;;;;;;;;;0.14;92.54;99320.77;105277;1273;98103;-62
2023/01/22 11:40:00;;;;;;;;;;;;;;;0.10;92.61;99317.55;105320;1266;97915;-62
2023/01/22 11:42:48;;;;;;;;;;;;;;;0.06;92.68;99323.56;105279;1257;97988;-62
2023/01/22 11:45:18;;;;;;;;;;;;;;;0.05;93.14;99315.79;105322;1256;98995;-62
2023/01/22 11:47:47;;;;;;;;;;;;;;;0.01;93.13;99309.99;105205;1257;108145;-62
2023/01/22 11:50:29;;;;;;;;;;;;;;;0.01;93.24;99305.98;105259;1255;97896;-62
2023/01/22 11:53:14;;;;;;;;;;;;;;;0.02;93.25;99311.42;105281;1264;97921;-62
2023/01/22 11:55:44;;;;;;;;;;;;;;;0.06;93.35;99318.05;105330;1266;111926;-62
2023/01/22 11:58:20;;;;;;;;;;;;;;;0.06;93.24;99317.38;105262;1261;98862;-62
2023/01/22 12:00:59;;;;;;;;;;;;;;;0.05;93.21;99319.05;105288;1257;107972;-62
2023/01/22 12:03:47;;;;;;;;;;;;;;;0.09;93.48;99318.27;105193;1266;99198;-62
2023/01/22 12:06:38;;;;;;;;;;;;;;;0.12;93.34;99313.90;105297;1266;97899;-62
2023/01/22 12:09:08;;;;;;;;;;;;;;;0.17;93.55;99317.04;105266;1264;110903;-61
2023/01/22 12:11:44;;;;;;;;;;;;;;;0.17;93.28;99324.59;105348;1266;98945;-62
2023/01/22 12:14:23;;;;;;;;;;;;;;;0.13;93.19;99319.95;105200;1257;108922;-61
2023/01/22 12:16:53;;;;;;;;;;;;;;;0.06;93.14;99328.42;105300;1266;98826;-62
2023/01/22 12:19:36;;;;;;;;;;;;;;;-0.00;93.55;99337.13;105310;1258;97896;-62
2023/01/22 12:22:29;;;;;;;;;;;;;;;-0.02;93.69;99347.85;105234;1255;110744;-62
2023/01/22 12:24:59;;;;;;;;;;;;;;;-0.02;93.84;99348.71;105042;1256;99308;-62
2023/01/22 12:27:26;;;;;;;;;;;;;;;-0.01;93.96;99341.36;105299;1275;105637;-62
2023/01/22 12:29:56;;;;;;;;;;;;;;;-0.01;94.05;99331.77;105160;1256;97962;-62
2023/01/22 12:32:24;;;;;;;;;;;;;;;-0.01;94.17;99336.77;105313;1258;99160;-62
2023/01/22 12:35:12;;;;;;;;;;;;;;;-0.01;94.33;99342.81;105048;1270;111359;-62
2023/01/22 12:37:38;;;;;;;;;;;;;;;-0.01;94.50;99347.72;105206;1259;99326;-62
2023/01/22 12:40:06;;;;;;;;;;;;;;;-0.01;94.40;99346.26;105338;1266;97995;-62
2023/01/22 12:42:42;;;;;;;;;;;;;;;-0.02;94.67;99347.60;105096;1266;99217;-62
2023/01/22 12:45:22;;;;;;;;;;;;;;;-0.01;94.54;99349.33;105302;1258;98004;-63
2023/01/22 12:48:09;;;;;;;;;;;;;;;0.02;94.79;99346.14;105125;1264;112247;-62
2023/01/22 12:50:46;;;;;;;;;;;;;;;0.04;94.85;99352.41;105141;1261;98697;-63
2023/01/22 12:53:28;;;;;;;;;;;;;;;0.07;94.70;99352.87;105181;1257;109721;-65